Sacramento, CA (94248)

2:19 AM PST on December 26, 2014 (GMT -0800)
APRSWXNET Sacramento CA US | Change Station
CLOSE
Current Station
Personal Weather Station
Location: Sacramento, CA
Elevation: 18 ft
Nearby Weather Stations

Elev 18 ft 38.57 °N, 121.48 °W | Updated 37 minutes ago

Clear
Clear
43 °F
Feels Like 43 °F
N
2
Wind Variable Wind from NNW
Gusts 0.0 mph

Today
High -- | Low -- °F
--% Chance of Precip.
Yesterday
High -- | Low -- °F
Precip. -- in
7:22 AM 4:51 PM
Waxing Crescent, 24% visible
Pressure 30.11 in
Visibility 10.0 miles
Clouds Clear
Windchill 43 °F
Dew Point 34 °F
Humidity 69%
Rainfall -999.00 in
Snow Depth Not available.
UV 0 out of 12
Pollen 6.00 out of 12
Air Quality Not available.
Flu Activity Not available.
METAR KSAC 260953Z AUTO 33010KT 10SM CLR 07/00 A3011 RMK AO2 SLP196 T00670000

More Conditions Fewer Conditions

Pressure 30.11 in
Visibility 10.0 miles
Clouds Clear
Windchill 43 °F
Dew Point 34 °F
Humidity 69%
Rainfall -999.00 in
Snow Depth Not available.
UV 0 out of 12
Pollen 6.00 out of 12
Air Quality Not available.
Flu Activity Not available.
METAR KSAC 260953Z AUTO 33010KT 10SM CLR 07/00 A3011 RMK AO2 SLP196 T00670000

More Conditions Fewer Conditions

10-Day Weather Forecast

Almanac

Astronomy

Dec. 26, 2014 Rise Set
Actual Time
Civil Twilight
Nautical Twilight
Astronomical Twilight
Moon
Length of Visible Light
Length of Day
Tomorrow will be .
, % of the Moon is Illuminated

Today's Extremes

State Highs State Lows

Community

WunderPhotos

Upload Photos

1,780,573 photos uploaded!

WunderBlogs® & News

Nearby

Air Quality

  Air Quality AQ Index Pollutant
Not available.

Snow Depth

Station Depth Elevation

Earthquake Activity

City Distance Mag. Time & Date
Minimum magnitude displayed is 2.5.

Coastal Water Temperatures

Place Temperature

Nearby Weather Stations